Time;durP1;ratioP1;P1;durP2;ratioP2;P2;SDS_P1;SDS_P2;PMS_P1;PMS_P2;Temp;Humidity;BMP_temperature;BMP_pressure;BME280_temperature;BME280_humidity;BME280_pressure;Samples;Min_cycle;Max_cycle;Signal;HPM_P1;HPM_P2
2022/10/17 00:00:26;;;;;;;;;11.00;10.00;;;;;;;;5083450;27;45552;-73
2022/10/17 00:02:53;;;;;;;;;11.67;11.33;;;;;;;;5082007;27;45369;-72
2022/10/17 00:05:19;;;;;;;;;12.33;10.33;;;;;;;;5074554;27;45381;-72
2022/10/17 00:07:44;;;;;;;;;12.00;11.33;;;;;;;;5081318;27;45229;-73
2022/10/17 00:10:09;;;;;;;;;13.67;10.00;;;;;;;;5087359;27;45394;-72
2022/10/17 00:12:34;;;;;;;;;11.67;11.00;;;;;;;;5081124;27;45251;-72
2022/10/17 00:15:01;;;;;;;;;10.67;10.67;;;;;;;;5089630;27;45348;-73
2022/10/17 00:17:26;;;;;;;;;14.00;13.00;;;;;;;;5089964;27;45254;-72
2022/10/17 00:19:51;;;;;;;;;11.67;10.67;;;;;;;;5089910;27;45463;-73
2022/10/17 00:22:16;;;;;;;;;9.00;9.00;;;;;;;;5099217;27;46403;-73
2022/10/17 00:24:42;;;;;;;;;11.67;10.67;;;;;;;;5093427;27;45165;-73
2022/10/17 00:27:07;;;;;;;;;14.67;11.33;;;;;;;;5092635;27;44615;-73
2022/10/17 00:29:32;;;;;;;;;13.00;10.67;;;;;;;;5075496;27;45462;-73
2022/10/17 00:31:57;;;;;;;;;11.33;10.67;;;;;;;;5074629;27;45572;-72
2022/10/17 00:34:23;;;;;;;;;7.67;7.67;;;;;;;;5075920;27;45332;-73
2022/10/17 00:36:48;;;;;;;;;14.00;12.00;;;;;;;;5084728;27;45341;-72
2022/10/17 00:39:14;;;;;;;;;10.00;8.00;;;;;;;;5070691;27;46271;-72
2022/10/17 00:41:39;;;;;;;;;11.67;11.67;;;;;;;;5086678;27;46196;-72
2022/10/17 00:44:23;;;;;;;;;13.00;10.33;;;;;;;;5090630;27;45314;-72
2022/10/17 00:46:48;;;;;;;;;13.33;8.67;;;;;;;;5087075;27;45542;-73
2022/10/17 00:49:13;;;;;;;;;11.67;10.67;;;;;;;;5093613;27;45272;-72
2022/10/17 00:51:49;;;;;;;;;11.00;11.00;;;;;;;;5084707;27;46379;-73
2022/10/17 00:54:16;;;;;;;;;9.67;9.67;;;;;;;;5097108;27;45268;-73
2022/10/17 00:56:41;;;;;;;;;10.33;9.00;;;;;;;;5093562;27;45473;-72
2022/10/17 00:59:07;;;;;;;;;10.00;9.00;;;;;;;;5098937;27;45460;-72
2022/10/17 01:01:33;;;;;;;;;12.33;10.33;;;;;;;;5093876;27;45469;-73
2022/10/17 01:03:58;;;;;;;;;14.00;11.67;;;;;;;;5082029;27;45216;-72
2022/10/17 01:06:24;;;;;;;;;11.00;10.67;;;;;;;;5075536;27;45270;-72
2022/10/17 01:08:49;;;;;;;;;9.00;8.67;;;;;;;;5090258;27;45509;-73
2022/10/17 01:11:20;;;;;;;;;11.00;11.00;;;;;;;;5082550;27;46613;-72
2022/10/17 01:13:52;;;;;;;;;8.33;8.00;;;;;;;;5090492;27;45350;-72
2022/10/17 01:16:20;;;;;;;;;13.33;11.33;;;;;;;;5086168;27;45689;-72
2022/10/17 01:18:48;;;;;;;;;9.33;9.33;;;;;;;;5085609;27;45423;-73
2022/10/17 01:21:14;;;;;;;;;14.00;10.00;;;;;;;;5086578;27;45785;-73
2022/10/17 01:23:42;;;;;;;;;13.00;11.00;;;;;;;;5097028;27;45207;-73
2022/10/17 01:26:18;;;;;;;;;10.67;10.67;;;;;;;;5092004;27;45513;-73
2022/10/17 01:28:58;;;;;;;;;10.00;10.00;;;;;;;;5092993;27;45186;-73
2022/10/17 01:31:35;;;;;;;;;14.00;11.67;;;;;;;;5089370;27;45244;-73
2022/10/17 01:34:22;;;;;;;;;9.33;9.00;;;;;;;;5092853;27;45277;-72
2022/10/17 01:36:54;;;;;;;;;9.00;9.00;;;;;;;;5097713;27;45414;-72
2022/10/17 01:39:37;;;;;;;;;11.67;10.00;;;;;;;;5099851;27;45256;-73
2022/10/17 01:42:05;;;;;;;;;12.00;12.00;;;;;;;;5091096;27;46295;-73
2022/10/17 01:44:37;;;;;;;;;13.67;12.67;;;;;;;;5089799;27;45299;-72
2022/10/17 01:47:05;;;;;;;;;11.67;11.67;;;;;;;;5089381;27;45339;-73
2022/10/17 01:49:33;;;;;;;;;9.00;9.00;;;;;;;;5098597;27;44999;-72
2022/10/17 01:52:18;;;;;;;;;12.67;10.67;;;;;;;;5086754;27;47155;-72
2022/10/17 01:54:52;;;;;;;;;13.00;9.00;;;;;;;;5092982;27;45411;-73
2022/10/17 01:57:22;;;;;;;;;10.67;10.67;;;;;;;;5087835;27;45402;-72
2022/10/17 01:59:50;;;;;;;;;11.00;10.67;;;;;;;;5087206;27;45458;-72
2022/10/17 02:02:16;;;;;;;;;9.33;9.33;;;;;;;;5085717;27;45265;-72
2022/10/17 02:04:42;;;;;;;;;12.00;10.00;;;;;;;;5088896;27;45256;-72
2022/10/17 02:07:08;;;;;;;;;12.67;10.00;;;;;;;;5085644;27;45343;-72
2022/10/17 02:09:34;;;;;;;;;10.00;9.00;;;;;;;;5078530;27;46802;-72
2022/10/17 02:12:20;;;;;;;;;14.33;11.00;;;;;;;;5090824;27;45270;-73
2022/10/17 02:14:45;;;;;;;;;10.33;9.00;;;;;;;;5097048;27;45221;-72
2022/10/17 02:17:16;;;;;;;;;13.00;11.33;;;;;;;;5095225;27;45248;-73
2022/10/17 02:20:01;;;;;;;;;11.33;10.00;;;;;;;;5099107;27;45519;-73
2022/10/17 02:22:33;;;;;;;;;11.33;10.33;;;;;;;;5098639;27;45722;-73
2022/10/17 02:25:08;;;;;;;;;13.33;11.67;;;;;;;;5095301;27;45295;-73
2022/10/17 02:27:44;;;;;;;;;12.00;10.67;;;;;;;;5081663;27;45728;-72
2022/10/17 02:30:09;;;;;;;;;10.00;10.00;;;;;;;;5088974;27;45230;-72
2022/10/17 02:32:34;;;;;;;;;11.33;9.00;;;;;;;;5089628;27;45374;-71
2022/10/17 02:35:01;;;;;;;;;10.00;8.33;;;;;;;;5095862;27;45356;-72
2022/10/17 02:37:28;;;;;;;;;9.33;9.33;;;;;;;;5076757;27;45264;-72
2022/10/17 02:39:55;;;;;;;;;9.33;9.33;;;;;;;;5093210;27;45522;-73
2022/10/17 02:42:22;;;;;;;;;10.33;10.33;;;;;;;;5087526;27;45332;-72
2022/10/17 02:44:48;;;;;;;;;11.67;10.00;;;;;;;;5096352;27;45383;-72
2022/10/17 02:47:28;;;;;;;;;12.67;10.33;;;;;;;;5088110;27;45478;-72
2022/10/17 02:49:57;;;;;;;;;10.00;10.00;;;;;;;;5097682;27;45550;-73
2022/10/17 02:52:31;;;;;;;;;10.33;9.33;;;;;;;;5092712;27;45992;-73
2022/10/17 02:54:59;;;;;;;;;11.67;10.67;;;;;;;;5067777;28;45391;-72
2022/10/17 02:57:34;;;;;;;;;7.00;7.00;;;;;;;;5080572;27;45431;-73
2022/10/17 03:00:01;;;;;;;;;10.33;10.00;;;;;;;;5070314;28;46334;-72
2022/10/17 03:02:26;;;;;;;;;10.33;9.00;;;;;;;;5086713;27;45385;-73
2022/10/17 03:04:51;;;;;;;;;10.00;10.00;;;;;;;;5088716;27;45410;-72
2022/10/17 03:07:16;;;;;;;;;10.00;8.00;;;;;;;;5081438;27;45429;-72
2022/10/17 03:09:41;;;;;;;;;6.00;6.00;;;;;;;;5089897;27;45784;-73
2022/10/17 03:12:07;;;;;;;;;11.67;9.00;;;;;;;;5085213;27;45318;-73
2022/10/17 03:14:32;;;;;;;;;12.33;9.33;;;;;;;;5090857;27;45320;-73
2022/10/17 03:16:57;;;;;;;;;11.33;9.00;;;;;;;;5090196;27;45429;-73
2022/10/17 03:19:22;;;;;;;;;12.00;10.67;;;;;;;;5097666;27;45264;-73
2022/10/17 03:21:48;;;;;;;;;9.67;9.67;;;;;;;;5089679;27;45794;-74
2022/10/17 03:24:13;;;;;;;;;10.67;9.00;;;;;;;;5088075;27;45211;-72
2022/10/17 03:26:38;;;;;;;;;10.33;9.00;;;;;;;;5091085;27;45352;-72
2022/10/17 03:29:03;;;;;;;;;12.00;8.00;;;;;;;;5088622;27;45244;-72
2022/10/17 03:31:28;;;;;;;;;8.00;8.00;;;;;;;;5085576;27;45615;-72
2022/10/17 03:33:54;;;;;;;;;9.67;8.33;;;;;;;;5087802;27;45443;-72
2022/10/17 03:36:19;;;;;;;;;9.00;8.67;;;;;;;;5087021;27;45434;-72
2022/10/17 03:38:44;;;;;;;;;9.00;9.00;;;;;;;;5089120;27;45371;-72
2022/10/17 03:41:10;;;;;;;;;8.00;8.00;;;;;;;;5086591;27;45840;-72
2022/10/17 03:43:35;;;;;;;;;6.33;5.33;;;;;;;;5090534;27;45406;-71
2022/10/17 03:46:01;;;;;;;;;11.67;9.33;;;;;;;;5088491;27;45419;-72
2022/10/17 03:48:27;;;;;;;;;9.67;8.67;;;;;;;;5093634;27;45460;-71
2022/10/17 03:51:00;;;;;;;;;9.67;8.00;;;;;;;;5090624;27;45524;-71
2022/10/17 03:53:25;;;;;;;;;8.67;8.67;;;;;;;;5095492;27;45541;-71
2022/10/17 03:55:50;;;;;;;;;8.00;7.67;;;;;;;;5092768;27;45452;-72
2022/10/17 03:58:15;;;;;;;;;8.00;7.67;;;;;;;;5086981;27;45549;-72
2022/10/17 04:00:40;;;;;;;;;8.67;7.00;;;;;;;;5086257;27;46288;-72
2022/10/17 04:03:06;;;;;;;;;9.00;8.33;;;;;;;;5087651;27;45326;-72
2022/10/17 04:05:31;;;;;;;;;8.33;7.67;;;;;;;;5093670;27;45596;-72
2022/10/17 04:07:56;;;;;;;;;9.67;8.67;;;;;;;;5098715;27;45469;-72
2022/10/17 04:10:21;;;;;;;;;10.67;9.67;;;;;;;;5091199;27;46581;-72
2022/10/17 04:12:46;;;;;;;;;11.33;9.33;;;;;;;;5099334;27;45367;-72
2022/10/17 04:15:12;;;;;;;;;8.67;7.33;;;;;;;;5096216;27;45497;-72
2022/10/17 04:17:37;;;;;;;;;10.67;8.67;;;;;;;;5090436;27;45313;-72
2022/10/17 04:20:02;;;;;;;;;9.33;9.33;;;;;;;;5071798;27;47398;-72
2022/10/17 04:22:27;;;;;;;;;9.00;9.00;;;;;;;;5079873;27;45334;-72
2022/10/17 04:24:53;;;;;;;;;9.33;7.33;;;;;;;;5084325;27;45469;-71
2022/10/17 04:27:18;;;;;;;;;10.00;8.33;;;;;;;;5088329;27;45315;-72
2022/10/17 04:29:43;;;;;;;;;8.00;8.00;;;;;;;;5084602;27;45569;-71
2022/10/17 04:32:09;;;;;;;;;8.33;8.33;;;;;;;;5091020;27;45437;-71
2022/10/17 04:34:34;;;;;;;;;11.00;9.00;;;;;;;;5094080;27;45215;-71
2022/10/17 04:36:59;;;;;;;;;11.33;10.00;;;;;;;;5088857;27;45234;-72
2022/10/17 04:39:24;;;;;;;;;9.33;8.00;;;;;;;;5093540;27;45619;-72
2022/10/17 04:41:49;;;;;;;;;12.00;8.67;;;;;;;;5087973;27;45200;-71
2022/10/17 04:44:15;;;;;;;;;8.00;7.00;;;;;;;;5099221;27;45236;-71
2022/10/17 04:46:40;;;;;;;;;11.67;9.67;;;;;;;;5085616;27;45205;-71
2022/10/17 04:49:05;;;;;;;;;4.67;4.67;;;;;;;;5096626;27;46192;-71
2022/10/17 04:51:30;;;;;;;;;9.33;8.00;;;;;;;;5084500;27;45276;-72
2022/10/17 04:53:55;;;;;;;;;9.00;9.00;;;;;;;;5086232;27;45208;-71
2022/10/17 04:56:22;;;;;;;;;10.67;8.00;;;;;;;;5095052;27;45303;-71
2022/10/17 04:58:48;;;;;;;;;11.00;8.67;;;;;;;;5070337;27;47355;-71
2022/10/17 05:01:17;;;;;;;;;9.00;8.67;;;;;;;;5095374;27;45370;-72
2022/10/17 05:03:43;;;;;;;;;7.67;5.67;;;;;;;;5097889;27;45370;-72
2022/10/17 05:06:09;;;;;;;;;8.67;8.00;;;;;;;;5077052;28;45425;-71
2022/10/17 05:08:35;;;;;;;;;10.33;7.67;;;;;;;;5095997;27;45316;-71
2022/10/17 05:11:00;;;;;;;;;10.00;7.67;;;;;;;;5090019;27;45512;-71
2022/10/17 05:13:25;;;;;;;;;8.67;8.67;;;;;;;;5069898;27;45251;-72
2022/10/17 05:15:50;;;;;;;;;9.33;9.33;;;;;;;;5071342;28;47230;-72
2022/10/17 05:18:16;;;;;;;;;9.00;9.00;;;;;;;;5088501;27;45389;-72
2022/10/17 05:20:41;;;;;;;;;13.00;7.50;;;;;;;;5091067;27;45386;-72
2022/10/17 05:23:06;;;;;;;;;8.67;7.67;;;;;;;;5093253;27;45222;-74
2022/10/17 05:25:31;;;;;;;;;9.00;6.67;;;;;;;;5071695;27;45506;-72
2022/10/17 05:27:56;;;;;;;;;9.00;9.00;;;;;;;;5101016;27;45162;-71
2022/10/17 05:30:22;;;;;;;;;10.33;9.00;;;;;;;;5095011;27;45241;-72
2022/10/17 05:32:50;;;;;;;;;10.33;7.00;;;;;;;;5098143;27;45381;-72
2022/10/17 05:35:15;;;;;;;;;10.67;9.67;;;;;;;;5096576;27;45576;-72
2022/10/17 05:37:40;;;;;;;;;10.33;8.67;;;;;;;;5094782;27;45327;-71
2022/10/17 05:40:06;;;;;;;;;8.33;8.00;;;;;;;;5087085;27;45446;-73
2022/10/17 05:42:31;;;;;;;;;11.00;8.67;;;;;;;;5085238;27;45277;-71
2022/10/17 05:44:57;;;;;;;;;9.67;9.00;;;;;;;;5098005;27;45323;-71
2022/10/17 05:47:22;;;;;;;;;8.00;8.00;;;;;;;;5085858;27;46381;-71
2022/10/17 05:49:47;;;;;;;;;11.67;10.00;;;;;;;;5080785;27;45778;-71
2022/10/17 05:52:12;;;;;;;;;11.33;10.00;;;;;;;;5085599;27;45307;-71
2022/10/17 05:54:38;;;;;;;;;11.67;9.67;;;;;;;;5098303;27;45253;-73
2022/10/17 05:57:03;;;;;;;;;12.33;10.33;;;;;;;;5090576;27;47650;-73
2022/10/17 05:59:28;;;;;;;;;13.00;11.00;;;;;;;;5093994;27;45338;-71
2022/10/17 06:01:53;;;;;;;;;11.00;9.00;;;;;;;;5093335;27;45400;-72
2022/10/17 06:04:19;;;;;;;;;12.33;9.67;;;;;;;;5082227;27;45254;-73
2022/10/17 06:06:44;;;;;;;;;9.67;8.33;;;;;;;;5065599;28;47147;-73
2022/10/17 06:09:09;;;;;;;;;12.00;8.67;;;;;;;;5085438;27;45454;-71
2022/10/17 06:11:35;;;;;;;;;11.00;10.33;;;;;;;;5085959;27;45496;-75
2022/10/17 06:14:00;;;;;;;;;12.33;12.00;;;;;;;;5087078;27;45226;-74
2022/10/17 06:16:25;;;;;;;;;12.33;11.33;;;;;;;;5087562;27;45193;-72
2022/10/17 06:18:50;;;;;;;;;13.33;12.67;;;;;;;;5088600;27;45421;-73
2022/10/17 06:21:18;;;;;;;;;22.33;22.00;;;;;;;;5086993;27;45565;-74
2022/10/17 06:23:43;;;;;;;;;13.33;13.33;;;;;;;;5097148;27;45395;-74
2022/10/17 06:26:08;;;;;;;;;12.00;12.00;;;;;;;;5088054;27;45528;-74
2022/10/17 06:28:34;;;;;;;;;12.67;11.67;;;;;;;;5093596;27;45370;-71
2022/10/17 06:31:03;;;;;;;;;12.00;9.00;;;;;;;;5092521;27;45468;-71
2022/10/17 06:33:28;;;;;;;;;13.33;13.33;;;;;;;;5090576;27;45899;-71
2022/10/17 06:35:54;;;;;;;;;12.33;11.00;;;;;;;;5094091;27;45474;-71
2022/10/17 06:38:20;;;;;;;;;12.33;12.33;;;;;;;;5083644;27;45249;-72
2022/10/17 06:40:45;;;;;;;;;12.67;11.67;;;;;;;;5085902;27;45205;-72
2022/10/17 06:43:10;;;;;;;;;11.00;10.00;;;;;;;;5087028;27;45354;-71
2022/10/17 06:45:37;;;;;;;;;11.67;11.67;;;;;;;;5069208;27;46189;-71
2022/10/17 06:48:02;;;;;;;;;12.33;12.00;;;;;;;;5086425;27;45429;-71
2022/10/17 06:50:27;;;;;;;;;14.33;13.67;;;;;;;;5096678;27;45505;-71
2022/10/17 06:52:52;;;;;;;;;13.33;13.00;;;;;;;;5091416;27;45426;-71
2022/10/17 06:55:18;;;;;;;;;10.00;10.00;;;;;;;;5084293;27;45312;-72
2022/10/17 06:57:43;;;;;;;;;13.67;12.67;;;;;;;;5092266;27;45383;-72
2022/10/17 07:00:09;;;;;;;;;12.33;10.00;;;;;;;;5089749;27;45385;-72
2022/10/17 07:02:34;;;;;;;;;11.33;10.67;;;;;;;;5089894;27;45507;-71
2022/10/17 07:04:59;;;;;;;;;11.00;10.00;;;;;;;;5089707;27;45344;-72
2022/10/17 07:07:24;;;;;;;;;11.33;8.67;;;;;;;;5091597;27;45320;-72
2022/10/17 07:09:50;;;;;;;;;10.33;8.67;;;;;;;;5084670;27;45323;-71
2022/10/17 07:12:15;;;;;;;;;12.00;12.00;;;;;;;;5075275;28;45694;-72
2022/10/17 07:14:41;;;;;;;;;15.00;12.33;;;;;;;;5085385;27;46092;-73
2022/10/17 07:17:06;;;;;;;;;12.67;11.00;;;;;;;;5100153;27;45420;-74
2022/10/17 07:19:31;;;;;;;;;10.00;10.00;;;;;;;;5094994;27;45307;-75
2022/10/17 07:21:56;;;;;;;;;13.67;10.33;;;;;;;;5091549;27;45513;-74
2022/10/17 07:24:22;;;;;;;;;9.00;9.00;;;;;;;;5093383;27;45316;-74
2022/10/17 07:26:47;;;;;;;;;12.33;11.00;;;;;;;;5088428;27;45368;-74
2022/10/17 07:29:12;;;;;;;;;10.67;10.67;;;;;;;;5088741;27;45310;-74
2022/10/17 07:31:37;;;;;;;;;12.67;10.00;;;;;;;;5090184;27;45408;-74
2022/10/17 07:34:02;;;;;;;;;13.67;12.00;;;;;;;;5091181;27;45437;-74
2022/10/17 07:36:28;;;;;;;;;10.00;10.00;;;;;;;;5084964;27;45310;-74
2022/10/17 07:38:53;;;;;;;;;11.67;10.00;;;;;;;;5087536;27;45298;-74
2022/10/17 07:41:18;;;;;;;;;11.33;9.67;;;;;;;;5075933;27;46722;-74
2022/10/17 07:43:43;;;;;;;;;7.33;7.33;;;;;;;;5086011;27;45295;-74
2022/10/17 07:46:10;;;;;;;;;10.00;9.67;;;;;;;;5089679;27;44778;-74
2022/10/17 07:48:35;;;;;;;;;9.00;8.67;;;;;;;;5078789;27;45449;-74
2022/10/17 07:51:02;;;;;;;;;12.33;9.33;;;;;;;;5093740;27;45377;-74
2022/10/17 07:53:27;;;;;;;;;10.67;9.33;;;;;;;;5082898;27;45393;-75
2022/10/17 07:55:52;;;;;;;;;11.33;11.33;;;;;;;;5086708;27;45245;-74
2022/10/17 07:58:18;;;;;;;;;9.67;8.00;;;;;;;;5086920;27;45278;-75
2022/10/17 08:00:46;;;;;;;;;10.67;8.67;;;;;;;;5085072;27;45473;-74
2022/10/17 08:03:12;;;;;;;;;10.67;9.67;;;;;;;;5075766;27;48076;-77
2022/10/17 08:05:37;;;;;;;;;21.67;20.00;;;;;;;;5083950;27;45583;-74
2022/10/17 08:08:02;;;;;;;;;9.33;7.67;;;;;;;;5081795;27;45454;-74
2022/10/17 08:10:28;;;;;;;;;9.00;7.00;;;;;;;;5091871;27;45416;-72
2022/10/17 08:12:54;;;;;;;;;14.33;11.67;;;;;;;;5083501;27;47022;-74
2022/10/17 08:15:19;;;;;;;;;8.00;8.00;;;;;;;;5091067;27;45929;-74
2022/10/17 08:17:44;;;;;;;;;8.67;8.00;;;;;;;;5065669;28;45413;-74
2022/10/17 08:20:10;;;;;;;;;7.67;6.33;;;;;;;;5093010;27;45225;-74
2022/10/17 08:22:35;;;;;;;;;9.67;6.00;;;;;;;;5090298;27;45348;-75
2022/10/17 08:25:00;;;;;;;;;8.67;8.33;;;;;;;;5066590;27;45423;-73
2022/10/17 08:27:27;;;;;;;;;12.00;7.67;;;;;;;;5093080;27;45426;-74
2022/10/17 08:29:53;;;;;;;;;13.00;10.00;;;;;;;;5096603;27;45371;-74
2022/10/17 08:32:23;;;;;;;;;10.67;9.67;;;;;;;;5090161;27;45231;-72
2022/10/17 08:34:48;;;;;;;;;7.33;7.33;;;;;;;;5085045;27;45452;-72
2022/10/17 08:37:14;;;;;;;;;8.00;7.00;;;;;;;;5091891;27;45471;-71
2022/10/17 08:39:42;;;;;;;;;8.67;7.33;;;;;;;;5086779;27;45502;-72
2022/10/17 08:42:24;;;;;;;;;7.67;7.67;;;;;;;;5100090;27;45591;-71
2022/10/17 08:45:01;;;;;;;;;8.67;7.00;;;;;;;;5099873;27;45501;-71
2022/10/17 08:47:28;;;;;;;;;5.67;5.67;;;;;;;;5088932;27;45412;-71
2022/10/17 08:49:57;;;;;;;;;11.33;7.33;;;;;;;;5092961;27;45252;-71
2022/10/17 08:52:36;;;;;;;;;7.33;6.33;;;;;;;;5092612;27;45665;-71
2022/10/17 08:55:02;;;;;;;;;7.67;7.33;;;;;;;;5098960;27;45352;-71
2022/10/17 08:57:28;;;;;;;;;6.33;6.33;;;;;;;;5080827;27;45476;-71
2022/10/17 08:59:53;;;;;;;;;8.67;7.67;;;;;;;;5091861;27;45406;-71
2022/10/17 09:02:33;;;;;;;;;9.67;8.33;;;;;;;;5085469;27;45263;-71
2022/10/17 09:05:04;;;;;;;;;7.00;6.67;;;;;;;;5088560;27;45469;-73
2022/10/17 09:07:35;;;;;;;;;5.33;4.67;;;;;;;;5078875;27;45654;-70
2022/10/17 09:10:06;;;;;;;;;8.33;8.00;;;;;;;;5089855;27;45413;-71
2022/10/17 09:12:37;;;;;;;;;7.33;7.00;;;;;;;;5100867;27;45764;-71
2022/10/17 09:15:18;;;;;;;;;9.00;8.00;;;;;;;;5071332;27;44845;-71
2022/10/17 09:17:50;;;;;;;;;13.67;8.00;;;;;;;;5093443;27;45363;-71
2022/10/17 09:20:21;;;;;;;;;12.00;8.33;;;;;;;;5087919;27;45440;-71
2022/10/17 09:22:50;;;;;;;;;7.00;7.00;;;;;;;;5090548;27;45629;-71
2022/10/17 09:25:17;;;;;;;;;6.67;6.67;;;;;;;;5094875;27;45387;-71
2022/10/17 09:27:54;;;;;;;;;6.00;6.00;;;;;;;;5076504;27;45407;-71
2022/10/17 09:30:20;;;;;;;;;9.33;6.33;;;;;;;;5094420;27;45536;-74
2022/10/17 09:32:46;;;;;;;;;10.67;9.67;;;;;;;;5097988;27;45322;-73
2022/10/17 09:35:15;;;;;;;;;9.33;8.00;;;;;;;;5069405;28;45421;-70
2022/10/17 09:37:40;;;;;;;;;8.67;7.67;;;;;;;;5091181;27;45313;-73
2022/10/17 09:40:07;;;;;;;;;10.33;8.33;;;;;;;;5090787;27;45603;-73
2022/10/17 09:42:34;;;;;;;;;9.33;7.33;;;;;;;;5089807;27;46625;-74
2022/10/17 09:45:12;;;;;;;;;10.67;9.00;;;;;;;;5095977;27;45307;-74
2022/10/17 09:47:40;;;;;;;;;12.33;8.00;;;;;;;;5080258;27;45339;-74
2022/10/17 09:50:25;;;;;;;;;7.00;7.00;;;;;;;;5072300;27;45594;-73
2022/10/17 09:52:52;;;;;;;;;8.67;7.33;;;;;;;;5096959;27;46340;-74
2022/10/17 09:55:19;;;;;;;;;14.33;10.33;;;;;;;;5093327;27;45380;-74
2022/10/17 09:57:51;;;;;;;;;11.00;8.00;;;;;;;;5089516;27;45486;-74
2022/10/17 10:00:20;;;;;;;;;9.67;8.00;;;;;;;;5092708;27;45404;-73
2022/10/17 10:02:45;;;;;;;;;10.00;10.00;;;;;;;;5081324;27;45645;-74
2022/10/17 10:05:15;;;;;;;;;12.00;9.00;;;;;;;;5090331;27;45253;-74
2022/10/17 10:07:41;;;;;;;;;11.00;9.33;;;;;;;;5085596;27;45529;-74
2022/10/17 10:10:21;;;;;;;;;13.00;10.00;;;;;;;;5074374;27;45747;-74
2022/10/17 10:13:00;;;;;;;;;8.00;8.00;;;;;;;;5080976;27;45613;-74
2022/10/17 10:15:31;;;;;;;;;11.33;9.00;;;;;;;;5075176;28;45311;-74
2022/10/17 10:17:56;;;;;;;;;9.00;9.00;;;;;;;;5096827;27;45248;-75
2022/10/17 10:20:35;;;;;;;;;10.67;9.33;;;;;;;;5097627;27;45647;-75
2022/10/17 10:23:07;;;;;;;;;13.33;10.33;;;;;;;;5067428;27;47423;-76
2022/10/17 10:25:33;;;;;;;;;11.67;9.33;;;;;;;;5091643;27;45622;-76
2022/10/17 10:27:58;;;;;;;;;11.00;11.00;;;;;;;;5090847;27;45639;-75
2022/10/17 10:30:26;;;;;;;;;9.00;8.00;;;;;;;;5094675;27;45415;-75
2022/10/17 10:32:51;;;;;;;;;11.33;9.67;;;;;;;;5088948;27;45316;-75
2022/10/17 10:35:21;;;;;;;;;10.00;10.00;;;;;;;;5088860;27;45583;-75
2022/10/17 10:37:51;;;;;;;;;13.33;11.33;;;;;;;;5090690;27;45228;-77
2022/10/17 10:40:19;;;;;;;;;17.00;11.33;;;;;;;;5065728;28;47192;-75
2022/10/17 10:42:49;;;;;;;;;14.67;11.67;;;;;;;;5061515;28;47329;-76
2022/10/17 10:45:16;;;;;;;;;12.33;11.00;;;;;;;;5082754;27;45355;-76
2022/10/17 10:47:58;;;;;;;;;12.33;12.33;;;;;;;;5081804;27;45473;-75
2022/10/17 10:50:25;;;;;;;;;15.33;15.33;;;;;;;;5090253;27;45548;-76
2022/10/17 10:52:56;;;;;;;;;14.00;13.00;;;;;;;;5099155;27;46470;-76
2022/10/17 10:55:27;;;;;;;;;8.33;8.33;;;;;;;;5090798;27;45438;-76
2022/10/17 10:57:55;;;;;;;;;11.33;10.67;;;;;;;;5076297;27;45296;-76
2022/10/17 11:00:23;;;;;;;;;15.00;12.00;;;;;;;;5092848;27;45281;-76
2022/10/17 11:02:53;;;;;;;;;13.00;12.67;;;;;;;;5098974;27;46309;-77
2022/10/17 11:05:23;;;;;;;;;11.67;11.67;;;;;;;;5093233;27;45493;-77
2022/10/17 11:07:58;;;;;;;;;14.67;12.00;;;;;;;;5089354;27;45387;-77
2022/10/17 11:10:34;;;;;;;;;13.33;11.67;;;;;;;;5076874;27;45796;-77
2022/10/17 11:13:08;;;;;;;;;10.00;10.00;;;;;;;;5061557;28;48253;-76
2022/10/17 11:15:39;;;;;;;;;13.00;12.00;;;;;;;;5084901;27;45539;-76
2022/10/17 11:18:15;;;;;;;;;13.00;12.67;;;;;;;;5092210;27;45488;-76
2022/10/17 11:20:54;;;;;;;;;16.00;12.33;;;;;;;;5091671;27;45289;-76
2022/10/17 11:23:37;;;;;;;;;13.33;11.00;;;;;;;;5083347;27;45420;-76
2022/10/17 11:26:05;;;;;;;;;13.33;11.00;;;;;;;;5066636;27;45158;-77
2022/10/17 11:28:31;;;;;;;;;11.00;11.00;;;;;;;;5092840;27;45359;-76
2022/10/17 11:31:05;;;;;;;;;14.00;11.67;;;;;;;;5084523;27;45490;-77
2022/10/17 11:33:47;;;;;;;;;18.33;14.00;;;;;;;;5087821;27;45337;-76
2022/10/17 11:36:15;;;;;;;;;15.00;13.33;;;;;;;;5090704;27;45354;-76
2022/10/17 11:38:49;;;;;;;;;13.67;13.33;;;;;;;;5099679;27;45392;-75
2022/10/17 11:41:21;;;;;;;;;10.33;10.33;;;;;;;;5085679;27;45983;-80
2022/10/17 11:43:50;;;;;;;;;11.33;11.33;;;;;;;;5085750;27;45520;-79
2022/10/17 11:46:15;;;;;;;;;12.33;12.00;;;;;;;;5068822;28;45290;-80
2022/10/17 11:48:43;;;;;;;;;14.33;13.67;;;;;;;;5093411;27;45264;-80
2022/10/17 11:51:11;;;;;;;;;14.67;12.33;;;;;;;;5092757;27;45502;-80
2022/10/17 11:53:43;;;;;;;;;14.67;12.33;;;;;;;;5077406;27;47170;-80
2022/10/17 11:56:10;;;;;;;;;13.67;12.00;;;;;;;;5085004;27;45367;-79
2022/10/17 11:58:42;;;;;;;;;12.33;12.33;;;;;;;;5085846;27;45245;-80
2022/10/17 12:01:31;;;;;;;;;12.67;11.67;;;;;;;;5088192;27;45532;-79
2022/10/17 12:03:56;;;;;;;;;11.00;11.00;;;;;;;;5065500;27;48516;-79
2022/10/17 12:06:40;;;;;;;;;13.67;13.67;;;;;;;;5089367;27;45359;-80
2022/10/17 12:09:24;;;;;;;;;14.00;12.67;;;;;;;;5093358;27;45568;-80
2022/10/17 12:12:02;;;;;;;;;16.33;13.33;;;;;;;;5093733;27;45911;-79
2022/10/17 12:14:46;;;;;;;;;13.67;12.33;;;;;;;;5079755;27;47175;-79
2022/10/17 12:17:32;;;;;;;;;10.33;10.33;;;;;;;;5084672;27;45407;-79
2022/10/17 12:20:24;;;;;;;;;10.67;10.00;;;;;;;;5088370;27;45416;-78
2022/10/17 12:22:50;;;;;;;;;13.67;12.33;;;;;;;;5076333;27;45724;-79
2022/10/17 12:25:28;;;;;;;;;14.67;14.33;;;;;;;;5083373;27;45383;-78
2022/10/17 12:28:06;;;;;;;;;14.67;12.67;;;;;;;;5078754;27;45326;-77
2022/10/17 12:30:31;;;;;;;;;13.67;12.00;;;;;;;;5086961;27;45514;-77
2022/10/17 12:33:05;;;;;;;;;17.00;11.67;;;;;;;;5089651;27;45535;-78
2022/10/17 12:35:32;;;;;;;;;16.00;12.00;;;;;;;;5085597;27;46322;-79
2022/10/17 12:38:01;;;;;;;;;12.00;11.33;;;;;;;;5080486;27;45340;-79
2022/10/17 12:40:35;;;;;;;;;9.00;9.00;;;;;;;;5083335;27;45425;-78
2022/10/17 12:43:13;;;;;;;;;12.67;11.00;;;;;;;;5090923;27;45250;-79
2022/10/17 12:45:54;;;;;;;;;10.00;10.00;;;;;;;;5084673;27;45417;-78
2022/10/17 12:48:38;;;;;;;;;14.67;12.00;;;;;;;;5088712;27;45245;-79
2022/10/17 12:51:20;;;;;;;;;12.67;10.00;;;;;;;;5085869;27;45622;-79
2022/10/17 12:53:45;;;;;;;;;8.33;7.33;;;;;;;;5079400;27;45528;-79
2022/10/17 12:56:14;;;;;;;;;11.67;10.67;;;;;;;;5086326;27;46105;-78
2022/10/17 12:58:47;;;;;;;;;13.00;11.00;;;;;;;;5096822;27;45331;-77
2022/10/17 13:01:26;;;;;;;;;14.33;10.67;;;;;;;;5096934;27;45362;-77
2022/10/17 13:03:52;;;;;;;;;14.00;11.67;;;;;;;;5084280;27;45392;-77
2022/10/17 13:06:39;;;;;;;;;12.33;10.67;;;;;;;;5091019;27;46502;-77
2022/10/17 13:09:06;;;;;;;;;11.33;11.00;;;;;;;;5063496;27;45214;-76
2022/10/17 13:11:33;;;;;;;;;16.00;12.00;;;;;;;;5072805;27;45497;-77
2022/10/17 13:14:00;;;;;;;;;10.67;8.67;;;;;;;;5092154;27;45282;-76
2022/10/17 13:16:50;;;;;;;;;13.00;12.33;;;;;;;;5083860;27;46448;-77
2022/10/17 13:19:16;;;;;;;;;13.00;13.00;;;;;;;;5078147;27;45200;-77
2022/10/17 13:21:50;;;;;;;;;11.00;10.33;;;;;;;;5085867;27;46370;-77
2022/10/17 13:24:19;;;;;;;;;12.67;8.67;;;;;;;;5086667;27;45253;-77
2022/10/17 13:26:45;;;;;;;;;10.00;9.33;;;;;;;;5090569;27;46557;-77
2022/10/17 13:29:12;;;;;;;;;14.33;10.67;;;;;;;;5098421;27;45250;-77
2022/10/17 13:31:39;;;;;;;;;9.67;8.33;;;;;;;;5086107;27;45372;-78
2022/10/17 13:34:06;;;;;;;;;10.00;9.33;;;;;;;;5089872;27;45189;-78
2022/10/17 13:36:32;;;;;;;;;13.33;11.00;;;;;;;;5083916;27;46216;-77
2022/10/17 13:38:59;;;;;;;;;12.67;10.67;;;;;;;;5086192;27;45429;-78
2022/10/17 13:41:26;;;;;;;;;12.00;10.33;;;;;;;;5084975;27;45689;-78
2022/10/17 13:43:52;;;;;;;;;8.67;8.67;;;;;;;;5087250;27;46109;-78
2022/10/17 13:46:24;;;;;;;;;11.33;10.00;;;;;;;;5092745;27;45470;-78
2022/10/17 13:48:49;;;;;;;;;10.67;10.00;;;;;;;;5098837;27;45257;-77
2022/10/17 13:51:15;;;;;;;;;12.67;9.00;;;;;;;;5095308;27;45501;-77
2022/10/17 13:53:42;;;;;;;;;11.00;9.00;;;;;;;;5084351;27;45486;-76
2022/10/17 13:56:24;;;;;;;;;10.33;9.00;;;;;;;;5089207;27;46205;-76
2022/10/17 13:58:49;;;;;;;;;10.33;9.33;;;;;;;;5099646;27;45309;-76
2022/10/17 14:01:15;;;;;;;;;14.00;12.00;;;;;;;;5096698;27;45298;-76
2022/10/17 14:03:41;;;;;;;;;13.00;12.00;;;;;;;;5083598;27;45490;-77
2022/10/17 14:06:08;;;;;;;;;12.00;9.33;;;;;;;;5088842;27;46076;-75
2022/10/17 14:08:33;;;;;;;;;13.67;11.00;;;;;;;;5081601;27;45282;-76
2022/10/17 14:10:59;;;;;;;;;11.00;9.67;;;;;;;;5086818;27;45422;-75
2022/10/17 14:13:26;;;;;;;;;12.67;12.67;;;;;;;;5078758;27;45454;-76
2022/10/17 14:15:53;;;;;;;;;12.33;11.67;;;;;;;;5094669;27;46232;-75
2022/10/17 14:18:20;;;;;;;;;16.33;13.33;;;;;;;;5095362;27;45478;-77
2022/10/17 14:20:46;;;;;;;;;12.00;10.67;;;;;;;;5068032;27;45441;-74
2022/10/17 14:23:30;;;;;;;;;10.67;9.67;;;;;;;;5082724;27;45600;-75
2022/10/17 14:26:07;;;;;;;;;13.00;12.00;;;;;;;;5084143;27;46385;-73
2022/10/17 14:28:33;;;;;;;;;14.33;12.00;;;;;;;;5097589;27;45631;-73
2022/10/17 14:31:27;;;;;;;;;11.33;11.33;;;;;;;;5093162;27;45373;-74
2022/10/17 14:33:53;;;;;;;;;12.00;12.00;;;;;;;;5069527;27;47560;-73